createdAt,value
2023-04-28T00:02:19.749Z,4.66
2023-04-28T00:04:47.690Z,4.59
2023-04-28T00:07:14.977Z,4.69
2023-04-28T00:09:42.140Z,4.84
2023-04-28T00:12:09.571Z,4.79
2023-04-28T00:14:36.721Z,4.23
2023-04-28T00:17:03.934Z,4.04
2023-04-28T00:19:31.680Z,4.30
2023-04-28T00:21:58.918Z,4.73
2023-04-28T00:24:26.063Z,5.14
2023-04-28T00:26:53.498Z,5.61
2023-04-28T00:29:20.755Z,5.89
2023-04-28T00:31:47.938Z,6.56
2023-04-28T00:34:15.751Z,6.80
2023-04-28T00:36:43.070Z,7.17
2023-04-28T00:39:29.085Z,7.41
2023-04-28T00:41:57.792Z,7.31
2023-04-28T00:44:25.033Z,7.37
2023-04-28T00:46:52.172Z,7.14
2023-04-28T00:49:19.623Z,7.36
2023-04-28T00:51:46.858Z,7.26
2023-04-28T00:54:14.539Z,7.32
2023-04-28T00:56:42.863Z,7.11
2023-04-28T00:59:10.063Z,6.59
2023-04-28T01:01:37.744Z,6.90
2023-04-28T01:04:05.660Z,6.05
2023-04-28T01:06:34.258Z,6.66
2023-04-28T01:09:01.722Z,5.43
2023-04-28T01:11:29.161Z,5.18
2023-04-28T01:13:59.426Z,5.30
2023-04-28T01:16:28.228Z,5.57
2023-04-28T01:18:56.165Z,5.69
2023-04-28T01:21:41.746Z,6.60
2023-04-28T01:24:10.086Z,6.98
2023-04-28T01:26:37.381Z,6.97
2023-04-28T01:29:04.541Z,6.93
2023-04-28T01:31:32.107Z,6.54
2023-04-28T01:33:59.255Z,5.31
2023-04-28T01:36:28.483Z,5.81
2023-04-28T01:38:56.142Z,5.90
2023-04-28T01:41:23.276Z,5.31
2023-04-28T01:43:50.811Z,4.28
2023-04-28T01:46:18.684Z,4.30
2023-04-28T01:48:46.057Z,4.21
2023-04-28T01:51:13.346Z,4.13
2023-04-28T01:53:41.778Z,3.87
2023-04-28T01:56:09.019Z,3.66
2023-04-28T01:58:36.326Z,3.49
2023-04-28T02:01:03.883Z,3.19
2023-04-28T02:03:31.581Z,3.62
2023-04-28T02:05:58.883Z,3.70
2023-04-28T02:08:26.144Z,3.69
2023-04-28T02:10:53.775Z,3.53
2023-04-28T02:13:21.552Z,4.17
2023-04-28T02:15:48.709Z,3.82
2023-04-28T02:18:16.273Z,3.55
2023-04-28T02:20:43.662Z,3.51
2023-04-28T02:23:10.913Z,3.31
2023-04-28T02:25:38.091Z,3.31
2023-04-28T02:28:05.507Z,3.24
2023-04-28T02:30:34.967Z,3.05
2023-04-28T02:33:02.240Z,3.02
2023-04-28T02:35:29.996Z,3.15
2023-04-28T02:37:57.440Z,3.15
2023-04-28T02:40:24.595Z,3.06
2023-04-28T02:42:52.486Z,3.00
2023-04-28T02:45:19.628Z,3.10
2023-04-28T02:47:46.886Z,3.19
2023-04-28T02:50:14.395Z,3.19
2023-04-28T02:52:41.649Z,3.51
2023-04-28T02:55:08.985Z,4.01
2023-04-28T02:57:36.422Z,3.70
2023-04-28T03:00:03.873Z,3.63
2023-04-28T03:02:32.564Z,3.32
2023-04-28T03:05:00.155Z,3.30
2023-04-28T03:07:27.577Z,3.48
2023-04-28T03:09:54.735Z,3.31
2023-04-28T03:12:22.280Z,3.62
2023-04-28T03:14:49.537Z,3.62
2023-04-28T03:17:16.767Z,3.49
2023-04-28T03:19:44.260Z,3.18
2023-04-28T03:22:11.557Z,3.25
2023-04-28T03:24:38.759Z,3.30
2023-04-28T03:27:06.569Z,3.27
2023-04-28T03:29:33.774Z,3.40
2023-04-28T03:32:01.452Z,3.42
2023-04-28T03:34:29.064Z,3.44
2023-04-28T03:36:56.258Z,3.67
2023-04-28T03:39:24.129Z,3.53
2023-04-28T03:41:51.761Z,3.50
2023-04-28T03:44:24.808Z,3.37
2023-04-28T03:46:52.650Z,3.39
2023-04-28T03:49:19.815Z,3.48
2023-04-28T03:51:47.919Z,3.60
2023-04-28T03:54:15.884Z,3.45
2023-04-28T03:56:44.137Z,3.71
2023-04-28T03:59:12.272Z,4.08
2023-04-28T04:01:39.777Z,5.17
2023-04-28T04:04:07.418Z,5.56
2023-04-28T04:06:34.860Z,5.42
2023-04-28T04:09:02.243Z,5.71
2023-04-28T04:11:29.650Z,5.76
2023-04-28T04:13:57.088Z,5.88
2023-04-28T04:16:24.687Z,5.61
2023-04-28T04:18:53.160Z,5.35
2023-04-28T04:21:20.453Z,5.53
2023-04-28T04:23:47.785Z,5.76
2023-04-28T04:26:15.236Z,5.45
2023-04-28T04:28:42.390Z,5.31
2023-04-28T04:31:09.916Z,5.14
2023-04-28T04:33:37.922Z,5.21
2023-04-28T04:36:05.650Z,5.10
2023-04-28T04:38:33.490Z,5.48
2023-04-28T04:41:02.545Z,6.22
2023-04-28T04:43:29.747Z,6.72
2023-04-28T04:45:56.971Z,7.40
2023-04-28T04:48:24.518Z,7.45
2023-04-28T04:50:51.892Z,7.21
2023-04-28T04:53:20.183Z,7.69
2023-04-28T04:55:47.634Z,7.68
2023-04-28T04:58:15.286Z,6.82
2023-04-28T05:00:44.024Z,6.73
2023-04-28T05:03:12.166Z,6.57
2023-04-28T05:05:40.193Z,7.25
2023-04-28T05:08:08.182Z,7.79
2023-04-28T05:10:35.787Z,7.84
2023-04-28T05:13:03.917Z,8.25
2023-04-28T05:15:31.474Z,8.64
2023-04-28T05:18:00.855Z,8.38
2023-04-28T05:20:28.283Z,8.35
2023-04-28T05:22:55.750Z,8.86
2023-04-28T05:25:23.509Z,9.00
2023-04-28T05:27:50.894Z,9.32
2023-04-28T05:30:18.152Z,9.30
2023-04-28T05:32:46.467Z,9.42
2023-04-28T05:35:15.164Z,9.68
2023-04-28T05:37:43.732Z,9.63
2023-04-28T05:40:11.241Z,9.67
2023-04-28T05:42:38.864Z,9.77
2023-04-28T05:45:06.882Z,9.78
2023-04-28T05:47:34.357Z,9.93
2023-04-28T05:50:01.560Z,10.22
2023-04-28T05:52:28.978Z,10.13
2023-04-28T05:54:56.470Z,10.21
2023-04-28T05:57:23.653Z,10.53
2023-04-28T05:59:50.869Z,10.66
2023-04-28T06:02:19.818Z,10.75
2023-04-28T06:04:49.105Z,10.62
2023-04-28T06:07:16.729Z,11.03
2023-04-28T06:09:43.907Z,11.04
2023-04-28T06:12:11.329Z,11.31
2023-04-28T06:14:38.570Z,11.07
2023-04-28T06:17:06.220Z,11.80
2023-04-28T06:19:33.596Z,12.17
2023-04-28T06:22:00.916Z,12.27
2023-04-28T06:24:28.083Z,12.29
2023-04-28T06:26:55.773Z,12.25
2023-04-28T06:29:24.107Z,11.97
2023-04-28T06:31:52.814Z,12.12
2023-04-28T06:34:20.665Z,12.29
2023-04-28T06:36:48.668Z,12.50
2023-04-28T06:39:15.826Z,12.21
2023-04-28T06:41:43.398Z,12.49
2023-04-28T06:44:11.934Z,12.52
2023-04-28T06:46:39.285Z,12.32
2023-04-28T06:49:06.732Z,12.64
2023-04-28T06:51:34.498Z,12.97
2023-04-28T06:54:01.716Z,13.30
2023-04-28T06:56:29.160Z,13.45
2023-04-28T06:58:59.698Z,13.60
2023-04-28T07:01:27.171Z,13.67
2023-04-28T07:03:54.881Z,14.24
2023-04-28T07:06:22.371Z,13.93
2023-04-28T07:08:49.557Z,14.61
2023-04-28T07:11:17.069Z,14.79
2023-04-28T07:13:46.451Z,14.91
2023-04-28T07:16:13.793Z,15.21
2023-04-28T07:18:41.215Z,15.18
2023-04-28T07:21:08.904Z,15.46
2023-04-28T07:23:38.678Z,15.29
2023-04-28T07:26:06.178Z,15.46
2023-04-28T07:28:33.361Z,15.95
2023-04-28T07:31:00.559Z,16.47
2023-04-28T07:33:28.200Z,16.42
2023-04-28T07:35:55.380Z,16.79
2023-04-28T07:38:22.638Z,16.68
2023-04-28T07:43:22.494Z,16.67
2023-04-28T07:45:50.182Z,16.90
2023-04-28T07:48:17.503Z,17.12
2023-04-28T07:50:44.680Z,17.08
2023-04-28T07:53:12.114Z,16.96
2023-04-28T07:55:42.017Z,16.57
2023-04-28T07:58:09.217Z,17.36
2023-04-28T08:00:36.655Z,17.13
2023-04-28T08:03:04.493Z,17.36
2023-04-28T08:05:32.449Z,17.40
2023-04-28T08:07:59.944Z,17.94
2023-04-28T08:10:28.034Z,18.44
2023-04-28T08:12:55.213Z,17.62
2023-04-28T08:15:22.351Z,16.87
2023-04-28T08:17:49.957Z,17.84
2023-04-28T08:20:20.638Z,17.63
2023-04-28T08:22:49.858Z,17.57
2023-04-28T08:25:18.490Z,18.18
2023-04-28T08:27:45.674Z,17.10
2023-04-28T08:30:13.338Z,17.85
2023-04-28T08:32:40.507Z,16.45
2023-04-28T08:35:08.049Z,16.50
2023-04-28T08:37:35.918Z,18.29
2023-04-28T08:40:03.337Z,17.76
2023-04-28T08:42:31.197Z,18.22
2023-04-28T08:44:59.824Z,17.12
2023-04-28T08:47:49.680Z,17.55
2023-04-28T08:50:18.484Z,18.38
2023-04-28T08:52:45.707Z,17.75
2023-04-28T08:55:13.173Z,18.09
2023-04-28T08:57:44.862Z,17.60
2023-04-28T09:00:12.519Z,18.48
2023-04-28T09:02:42.481Z,17.21
2023-04-28T09:05:11.001Z,17.57
2023-04-28T09:07:38.380Z,16.89
2023-04-28T09:10:21.812Z,17.41
2023-04-28T09:12:51.498Z,17.79
2023-04-28T09:15:28.455Z,17.34
2023-04-28T09:17:56.002Z,17.56
2023-04-28T09:20:24.242Z,18.49
2023-04-28T09:22:51.890Z,18.46
2023-04-28T09:25:21.416Z,19.37
2023-04-28T09:27:51.381Z,19.65
2023-04-28T09:30:18.698Z,17.99
2023-04-28T09:32:46.494Z,18.72
2023-04-28T09:35:14.680Z,18.19
2023-04-28T09:37:43.413Z,17.53
2023-04-28T09:40:12.611Z,17.64
2023-04-28T09:42:40.781Z,18.51
2023-04-28T09:45:14.551Z,19.15
2023-04-28T09:47:43.138Z,17.85
2023-04-28T09:50:14.770Z,17.01
2023-04-28T09:52:44.258Z,16.61
2023-04-28T09:55:12.501Z,17.82
2023-04-28T09:57:39.950Z,17.13
2023-04-28T10:00:09.146Z,16.56
2023-04-28T10:05:09.619Z,17.04
2023-04-28T10:07:37.705Z,18.19
2023-04-28T10:10:05.497Z,17.58
2023-04-28T10:12:33.721Z,17.25
2023-04-28T10:15:01.328Z,18.19
2023-04-28T10:17:29.646Z,19.00
2023-04-28T10:19:57.531Z,18.43
2023-04-28T10:22:43.596Z,18.69
2023-04-28T10:25:29.903Z,18.99
2023-04-28T10:27:57.970Z,20.01
2023-04-28T10:30:28.610Z,19.61
2023-04-28T10:33:09.353Z,19.31
2023-04-28T10:35:37.561Z,19.39
2023-04-28T10:38:12.428Z,20.04
2023-04-28T10:40:40.007Z,18.30
2023-04-28T10:43:08.630Z,18.87
2023-04-28T10:45:53.810Z,19.75
2023-04-28T10:48:24.024Z,19.80
2023-04-28T10:50:56.999Z,19.70
2023-04-28T10:53:44.880Z,19.71
2023-04-28T10:56:18.496Z,20.19
2023-04-28T10:58:46.601Z,20.40
2023-04-28T11:01:24.997Z,19.30
2023-04-28T11:04:08.265Z,19.19
2023-04-28T11:06:36.579Z,18.25
2023-04-28T11:09:19.483Z,18.59
2023-04-28T11:12:06.765Z,18.65
2023-04-28T11:14:35.206Z,19.60
2023-04-28T11:17:03.861Z,18.92
2023-04-28T11:19:37.930Z,18.79
2023-04-28T11:22:11.578Z,19.05
2023-04-28T11:24:38.881Z,19.68
2023-04-28T11:27:06.404Z,19.13
2023-04-28T11:29:33.643Z,19.40
2023-04-28T11:32:01.445Z,19.53
2023-04-28T11:34:28.917Z,19.26
2023-04-28T11:36:56.179Z,19.37
2023-04-28T11:39:28.692Z,19.56
2023-04-28T11:41:56.313Z,18.88
2023-04-28T11:44:42.335Z,19.82
2023-04-28T11:47:10.287Z,20.27
2023-04-28T11:49:44.228Z,20.09
2023-04-28T11:52:11.833Z,20.37
2023-04-28T11:54:39.161Z,19.38
2023-04-28T11:57:06.756Z,19.92
2023-04-28T11:59:35.129Z,20.02
2023-04-28T12:02:03.393Z,20.31
2023-04-28T12:04:31.983Z,19.28
2023-04-28T12:07:07.144Z,19.05
2023-04-28T12:09:35.352Z,19.27
2023-04-28T12:12:06.602Z,19.40
2023-04-28T12:14:39.849Z,19.50
2023-04-28T12:17:07.326Z,20.25
2023-04-28T12:19:44.450Z,20.14
2023-04-28T12:22:11.908Z,18.38
2023-04-28T12:24:41.126Z,17.47
2023-04-28T12:27:21.878Z,18.55
2023-04-28T12:29:49.528Z,19.20
2023-04-28T12:32:17.425Z,19.27
2023-04-28T12:34:45.566Z,19.24
2023-04-28T12:37:13.407Z,17.97
2023-04-28T12:39:41.247Z,17.47
2023-04-28T12:42:08.645Z,17.03
2023-04-28T12:44:36.690Z,18.02
2023-04-28T12:47:07.614Z,18.82
2023-04-28T12:49:35.592Z,19.15
2023-04-28T12:52:03.373Z,18.04
2023-04-28T12:54:30.719Z,17.75
2023-04-28T12:56:59.098Z,18.80
2023-04-28T12:59:45.494Z,19.58
2023-04-28T13:02:14.782Z,20.04
2023-04-28T13:04:48.641Z,19.40
2023-04-28T13:07:15.930Z,19.50
2023-04-28T13:09:44.280Z,19.22
2023-04-28T13:12:12.153Z,20.55
2023-04-28T13:14:39.321Z,20.26
2023-04-28T13:17:06.906Z,20.18
2023-04-28T13:19:34.596Z,20.55
2023-04-28T13:22:03.133Z,20.21
2023-04-28T13:24:30.758Z,20.46
2023-04-28T13:26:59.187Z,20.95
2023-04-28T13:29:26.428Z,20.76
2023-04-28T13:31:54.124Z,20.84
2023-04-28T13:34:23.666Z,21.50
2023-04-28T13:36:53.886Z,21.09
2023-04-28T13:39:22.155Z,21.32
2023-04-28T13:41:49.523Z,19.82
2023-04-28T13:44:16.875Z,19.34
2023-04-28T13:46:44.370Z,19.57
2023-04-28T13:49:11.786Z,20.12
2023-04-28T13:51:39.066Z,19.97
2023-04-28T13:54:11.355Z,20.12
2023-04-28T13:56:38.699Z,18.93
2023-04-28T13:59:06.197Z,18.85
2023-04-28T14:01:33.704Z,19.76
2023-04-28T14:04:01.524Z,19.97
2023-04-28T14:06:28.923Z,20.72
2023-04-28T14:08:56.550Z,20.04
2023-04-28T14:11:24.006Z,18.81
2023-04-28T14:13:51.308Z,18.74
2023-04-28T14:16:18.742Z,18.31
2023-04-28T14:18:46.277Z,18.63
2023-04-28T14:21:13.485Z,18.90
2023-04-28T14:23:40.724Z,19.75
2023-04-28T14:26:09.093Z,20.00
2023-04-28T14:28:37.016Z,19.69
2023-04-28T14:31:07.322Z,19.80
2023-04-28T14:33:34.953Z,18.88
2023-04-28T14:36:02.462Z,19.69
2023-04-28T14:38:30.715Z,20.10
2023-04-28T14:40:58.347Z,20.09
2023-04-28T14:43:25.679Z,19.80
2023-04-28T14:45:53.420Z,19.62
2023-04-28T14:48:20.887Z,19.34
2023-04-28T14:50:48.053Z,19.05
2023-04-28T14:53:15.264Z,19.05
2023-04-28T14:55:43.531Z,19.78
2023-04-28T14:58:10.712Z,19.43
2023-04-28T15:00:38.075Z,19.11
2023-04-28T15:03:05.729Z,18.99
2023-04-28T15:05:33.194Z,20.10
2023-04-28T15:08:00.572Z,20.51
2023-04-28T15:10:29.133Z,20.06
2023-04-28T15:12:57.004Z,19.76
2023-04-28T15:15:24.213Z,18.51
2023-04-28T15:17:52.908Z,19.13
2023-04-28T15:20:20.149Z,19.23
2023-04-28T15:22:47.412Z,19.81
2023-04-28T15:25:15.571Z,19.56
2023-04-28T15:27:42.863Z,19.18
2023-04-28T15:30:10.349Z,19.77
2023-04-28T15:32:38.168Z,19.82
2023-04-28T15:35:05.560Z,19.28
2023-04-28T15:37:47.588Z,19.22
2023-04-28T15:40:15.996Z,19.03
2023-04-28T15:42:48.715Z,19.00
2023-04-28T15:45:16.381Z,19.00
2023-04-28T15:47:43.630Z,19.14
2023-04-28T15:50:10.934Z,18.73
2023-04-28T15:52:39.897Z,18.71
2023-04-28T15:55:08.154Z,18.10
2023-04-28T15:57:35.514Z,18.63
2023-04-28T16:00:03.560Z,18.03
2023-04-28T16:02:35.407Z,18.33
2023-04-28T16:05:04.676Z,18.06
2023-04-28T16:07:37.932Z,17.37
2023-04-28T16:10:07.005Z,17.39
2023-04-28T16:12:35.687Z,17.98
2023-04-28T16:15:03.426Z,18.32
2023-04-28T16:17:31.817Z,17.51
2023-04-28T16:19:58.941Z,17.00
2023-04-28T16:22:26.203Z,16.87
2023-04-28T16:24:54.515Z,17.21
2023-04-28T16:27:21.836Z,17.75
2023-04-28T16:29:48.968Z,18.17
2023-04-28T16:32:16.501Z,18.49
2023-04-28T16:34:43.842Z,18.59
2023-04-28T16:37:11.698Z,18.54
2023-04-28T16:39:39.184Z,18.53
2023-04-28T16:42:06.623Z,18.75
2023-04-28T16:44:34.437Z,19.28
2023-04-28T16:47:01.910Z,18.74
2023-04-28T16:49:29.254Z,18.65
2023-04-28T16:51:57.697Z,18.75
2023-04-28T16:54:25.592Z,18.90
2023-04-28T16:56:52.757Z,19.17
2023-04-28T16:59:19.953Z,18.92
2023-04-28T17:01:47.527Z,19.25
2023-04-28T17:04:15.086Z,18.88
2023-04-28T17:06:42.418Z,19.17
2023-04-28T17:09:09.946Z,18.70
2023-04-28T17:11:40.265Z,18.82
2023-04-28T17:14:07.401Z,18.83
2023-04-28T17:16:34.844Z,18.57
2023-04-28T17:19:02.409Z,18.17
2023-04-28T17:21:29.882Z,18.19
2023-04-28T17:23:58.091Z,18.20
2023-04-28T17:26:25.669Z,18.20
2023-04-28T17:28:53.456Z,17.96
2023-04-28T17:31:21.752Z,17.92
2023-04-28T17:33:50.592Z,18.06
2023-04-28T17:36:18.271Z,18.19
2023-04-28T17:38:46.085Z,18.22
2023-04-28T17:41:13.515Z,18.07
2023-04-28T17:43:40.685Z,18.19
2023-04-28T17:46:08.142Z,18.29
2023-04-28T17:48:35.361Z,18.42
2023-04-28T17:51:03.124Z,18.41
2023-04-28T17:53:30.664Z,18.15
2023-04-28T17:55:57.824Z,17.97
2023-04-28T17:58:24.964Z,18.06
2023-04-28T18:00:59.174Z,18.38
2023-04-28T18:03:27.130Z,18.15
2023-04-28T18:05:54.638Z,17.99
2023-04-28T18:08:22.124Z,18.17
2023-04-28T18:10:49.769Z,18.25
2023-04-28T18:13:16.994Z,18.10
2023-04-28T18:15:44.870Z,17.97
2023-04-28T18:18:12.958Z,18.41
2023-04-28T18:20:41.971Z,17.84
2023-04-28T18:23:09.834Z,17.84
2023-04-28T18:25:38.200Z,17.90
2023-04-28T18:28:05.894Z,17.25
2023-04-28T18:30:39.532Z,17.06
2023-04-28T18:33:08.112Z,17.01
2023-04-28T18:35:35.610Z,17.27
2023-04-28T18:38:03.792Z,17.14
2023-04-28T18:40:40.410Z,17.04
2023-04-28T18:43:10.797Z,17.07
2023-04-28T18:45:41.287Z,17.20
2023-04-28T18:48:10.007Z,17.24
2023-04-28T18:50:38.874Z,17.05
2023-04-28T18:53:09.421Z,17.36
2023-04-28T18:55:37.157Z,16.71
2023-04-28T18:58:04.889Z,16.93
2023-04-28T19:00:33.409Z,17.18
2023-04-28T19:03:02.311Z,17.16
2023-04-28T19:08:12.558Z,17.19
2023-04-28T19:10:41.589Z,17.43
2023-04-28T19:13:09.175Z,17.17
2023-04-28T19:15:36.715Z,16.56
2023-04-28T19:18:05.224Z,16.38
2023-04-28T19:20:32.884Z,15.44
2023-04-28T19:23:03.988Z,15.56
2023-04-28T19:25:34.014Z,15.52
2023-04-28T19:28:01.700Z,15.68
2023-04-28T19:30:29.926Z,15.52
2023-04-28T19:32:57.835Z,15.62
2023-04-28T19:35:26.550Z,15.80
2023-04-28T19:37:55.223Z,15.66
2023-04-28T19:40:26.687Z,15.23
2023-04-28T19:42:55.953Z,14.85
2023-04-28T19:45:23.528Z,15.26
2023-04-28T19:47:53.283Z,14.81
2023-04-28T19:50:20.489Z,14.40
2023-04-28T19:52:48.245Z,15.37
2023-04-28T19:55:20.876Z,15.71
2023-04-28T19:57:48.970Z,15.63
2023-04-28T20:00:16.639Z,15.57
2023-04-28T20:02:45.533Z,15.08
2023-04-28T20:05:15.496Z,15.22
2023-04-28T20:07:43.134Z,15.23
2023-04-28T20:10:12.370Z,15.33
2023-04-28T20:12:40.219Z,15.30
2023-04-28T20:15:09.080Z,15.23
2023-04-28T20:17:37.143Z,15.17
2023-04-28T20:20:07.287Z,15.45
2023-04-28T20:22:38.163Z,15.42
2023-04-28T20:25:11.525Z,15.43
2023-04-28T20:27:39.450Z,15.14
2023-04-28T20:30:08.078Z,15.23
2023-04-28T20:32:36.710Z,15.33
2023-04-28T20:35:05.749Z,15.31
2023-04-28T20:37:34.169Z,15.10
2023-04-28T20:40:01.395Z,15.23
2023-04-28T20:42:29.303Z,15.12
2023-04-28T20:44:56.810Z,15.13
2023-04-28T20:47:24.111Z,15.37
2023-04-28T20:49:51.577Z,15.19
2023-04-28T20:52:19.305Z,15.20
2023-04-28T20:54:46.889Z,15.58
2023-04-28T20:57:14.218Z,15.53
2023-04-28T20:59:41.684Z,15.02
2023-04-28T21:02:09.121Z,14.86
2023-04-28T21:04:36.728Z,14.96
2023-04-28T21:07:04.220Z,14.55
2023-04-28T21:09:31.468Z,14.49
2023-04-28T21:11:58.679Z,14.67
2023-04-28T21:14:26.371Z,14.46
2023-04-28T21:16:53.609Z,14.51
2023-04-28T21:19:20.836Z,14.50
2023-04-28T21:21:48.245Z,14.65
2023-04-28T21:24:15.377Z,14.51
2023-04-28T21:26:43.176Z,14.83
2023-04-28T21:29:10.579Z,14.46
2023-04-28T21:31:37.826Z,14.51
2023-04-28T21:34:06.555Z,14.64
2023-04-28T21:36:34.462Z,14.74
2023-04-28T21:39:03.926Z,14.69
2023-04-28T21:41:31.759Z,14.58
2023-04-28T21:43:59.774Z,14.58
2023-04-28T21:46:27.018Z,14.16
2023-04-28T21:48:54.247Z,14.35
2023-04-28T21:51:21.903Z,14.26
2023-04-28T21:53:49.086Z,14.30
2023-04-28T21:56:17.254Z,14.59
2023-04-28T21:58:45.132Z,14.40
2023-04-28T22:03:43.026Z,14.70
2023-04-28T22:06:10.318Z,14.93
2023-04-28T22:08:38.419Z,14.87
2023-04-28T22:11:06.834Z,14.24
2023-04-28T22:13:33.968Z,14.15
2023-04-28T22:16:01.990Z,14.22
2023-04-28T22:18:29.622Z,14.72
2023-04-28T22:20:56.787Z,14.17
2023-04-28T22:23:23.921Z,14.77
2023-04-28T22:25:51.427Z,14.98
2023-04-28T22:28:18.674Z,14.65
2023-04-28T22:30:46.790Z,14.42
2023-04-28T22:33:14.308Z,14.81
2023-04-28T22:35:42.511Z,14.07
2023-04-28T22:38:09.683Z,14.23
2023-04-28T22:40:37.131Z,14.49
2023-04-28T22:43:04.348Z,14.07
2023-04-28T22:45:31.457Z,14.51
2023-04-28T22:47:58.893Z,14.16
2023-04-28T22:50:26.121Z,14.34
2023-04-28T22:52:53.356Z,14.77
2023-04-28T22:55:20.890Z,14.38
2023-04-28T22:57:48.110Z,14.61
2023-04-28T23:00:18.208Z,14.17
2023-04-28T23:02:45.974Z,14.18
2023-04-28T23:05:13.390Z,13.73
2023-04-28T23:07:41.064Z,13.64
2023-04-28T23:10:08.575Z,13.61
2023-04-28T23:12:35.710Z,13.62
2023-04-28T23:15:02.874Z,13.92
2023-04-28T23:17:30.579Z,14.01
2023-04-28T23:19:58.166Z,13.82
2023-04-28T23:22:25.344Z,13.73
2023-04-28T23:24:52.867Z,13.83
2023-04-28T23:27:19.978Z,14.06
2023-04-28T23:29:47.112Z,13.64
2023-04-28T23:32:14.559Z,14.08
2023-04-28T23:34:42.773Z,14.42
2023-04-28T23:37:10.431Z,13.99
2023-04-28T23:39:37.858Z,14.24
2023-04-28T23:42:05.037Z,14.06
2023-04-28T23:44:32.225Z,13.84
2023-04-28T23:46:59.648Z,13.56
2023-04-28T23:49:26.862Z,13.53
2023-04-28T23:51:54.506Z,13.97
2023-04-28T23:54:21.889Z,14.15
2023-04-28T23:56:49.266Z,14.44
2023-04-28T23:59:16.599Z,13.94
